createdAt,value
2023-04-25T00:00:15.933Z,55.30
2023-04-25T00:02:43.592Z,55.20
2023-04-25T00:05:11.295Z,55.20
2023-04-25T00:07:38.062Z,55.30
2023-04-25T00:10:05.405Z,55.20
2023-04-25T00:12:34.401Z,55.20
2023-04-25T00:15:01.085Z,55.20
2023-04-25T00:17:27.819Z,55.20
2023-04-25T00:19:54.764Z,55.20
2023-04-25T00:22:21.693Z,55.10
2023-04-25T00:24:48.337Z,55.10
2023-04-25T00:27:15.146Z,55.40
2023-04-25T00:29:41.726Z,55.50
2023-04-25T00:32:08.478Z,55.50
2023-04-25T00:34:35.219Z,55.30
2023-04-25T00:37:03.061Z,55.30
2023-04-25T00:39:29.696Z,55.40
2023-04-25T00:41:57.412Z,55.20
2023-04-25T00:44:24.952Z,55.20
2023-04-25T00:46:52.070Z,55.20
2023-04-25T00:49:18.702Z,55.20
2023-04-25T00:51:45.705Z,55.20
2023-04-25T00:54:14.280Z,55.20
2023-04-25T00:56:41.311Z,55.30
2023-04-25T00:59:08.366Z,55.20
2023-04-25T01:01:35.973Z,55.20
2023-04-25T01:04:03.279Z,55.30
2023-04-25T01:06:31.087Z,55.20
2023-04-25T01:08:58.556Z,55.20
2023-04-25T01:11:25.197Z,55.20
2023-04-25T01:13:52.511Z,55.20
2023-04-25T01:16:19.518Z,55.20
2023-04-25T01:18:47.602Z,55.20
2023-04-25T01:21:14.543Z,55.30
2023-04-25T01:23:42.539Z,55.00
2023-04-25T01:26:13.075Z,55.20
2023-04-25T01:28:44.261Z,55.10
2023-04-25T01:31:12.121Z,55.10
2023-04-25T01:33:38.741Z,55.10
2023-04-25T01:36:05.964Z,55.30
2023-04-25T01:38:32.832Z,54.80
2023-04-25T01:40:59.623Z,55.40
2023-04-25T01:43:27.483Z,55.40
2023-04-25T01:45:54.209Z,55.30
2023-04-25T01:48:21.017Z,55.30
2023-04-25T01:50:47.756Z,55.30
2023-04-25T01:53:15.628Z,55.20
2023-04-25T01:55:42.253Z,55.30
2023-04-25T01:58:10.547Z,55.40
2023-04-25T02:00:39.710Z,55.40
2023-04-25T02:03:06.762Z,55.90
2023-04-25T02:05:41.297Z,55.40
2023-04-25T02:08:09.677Z,55.30
2023-04-25T02:10:36.722Z,55.40
2023-04-25T02:13:05.333Z,55.30
2023-04-25T02:15:32.328Z,55.40
2023-04-25T02:18:00.922Z,55.50
2023-04-25T02:20:29.589Z,55.50
2023-04-25T02:22:56.246Z,55.50
2023-04-25T02:25:23.259Z,55.40
2023-04-25T02:27:50.064Z,55.50
2023-04-25T02:30:16.790Z,55.40
2023-04-25T02:32:43.559Z,55.40
2023-04-25T02:35:10.723Z,55.30
2023-04-25T02:37:39.003Z,55.20
2023-04-25T02:40:06.561Z,55.20
2023-04-25T02:42:33.421Z,55.20
2023-04-25T02:45:00.025Z,55.30
2023-04-25T02:47:26.845Z,55.20
2023-04-25T02:49:53.929Z,55.20
2023-04-25T02:52:20.678Z,55.20
2023-04-25T02:54:47.391Z,55.20
2023-04-25T02:57:14.153Z,55.20
2023-04-25T02:59:40.786Z,55.10
2023-04-25T03:02:07.479Z,55.20
2023-04-25T03:04:34.448Z,55.20
2023-04-25T03:07:01.860Z,55.20
2023-04-25T03:09:28.479Z,55.40
2023-04-25T03:11:55.122Z,55.40
2023-04-25T03:14:21.709Z,55.50
2023-04-25T03:16:48.432Z,56.10
2023-04-25T03:19:17.024Z,55.30
2023-04-25T03:21:44.362Z,55.40
2023-04-25T03:24:12.055Z,55.30
2023-04-25T03:26:38.696Z,55.50
2023-04-25T03:29:05.468Z,55.50
2023-04-25T03:31:32.306Z,55.60
2023-04-25T03:33:59.025Z,55.30
2023-04-25T03:36:25.790Z,55.30
2023-04-25T03:38:52.417Z,55.40
2023-04-25T03:41:19.023Z,55.60
2023-04-25T03:43:45.874Z,55.70
2023-04-25T03:46:12.533Z,55.70
2023-04-25T03:48:39.199Z,55.40
2023-04-25T03:51:05.827Z,55.60
2023-04-25T03:53:32.491Z,55.80
2023-04-25T03:55:59.097Z,55.70
2023-04-25T03:58:25.794Z,55.70
2023-04-25T04:00:52.471Z,55.80
2023-04-25T04:03:19.203Z,55.60
2023-04-25T04:05:46.108Z,55.50
2023-04-25T04:08:12.972Z,55.60
2023-04-25T04:10:39.591Z,55.80
2023-04-25T04:13:06.187Z,56.10
2023-04-25T04:15:33.871Z,56.20
2023-04-25T04:18:03.728Z,56.10
2023-04-25T04:20:33.904Z,55.90
2023-04-25T04:23:00.562Z,55.90
2023-04-25T04:25:27.307Z,55.80
2023-04-25T04:27:55.467Z,55.90
2023-04-25T04:30:26.371Z,55.80
2023-04-25T04:32:53.241Z,55.80
2023-04-25T04:35:19.999Z,55.80
2023-04-25T04:37:47.350Z,55.80
2023-04-25T04:40:16.467Z,55.80
2023-04-25T04:42:46.607Z,55.90
2023-04-25T04:45:15.456Z,55.80
2023-04-25T04:47:42.172Z,55.80
2023-04-25T04:50:10.235Z,55.80
2023-04-25T04:52:38.156Z,55.80
2023-04-25T04:55:06.710Z,55.80
2023-04-25T04:57:34.442Z,55.70
2023-04-25T05:00:02.068Z,55.70
2023-04-25T05:02:29.048Z,55.70
2023-04-25T05:04:57.504Z,56.20
2023-04-25T05:07:24.396Z,55.70
2023-04-25T05:09:50.987Z,55.80
2023-04-25T05:12:17.602Z,55.90
2023-04-25T05:14:44.200Z,55.90
2023-04-25T05:17:11.107Z,55.90
2023-04-25T05:19:37.742Z,55.80
2023-04-25T05:22:04.469Z,55.80
2023-04-25T05:24:31.691Z,55.70
2023-04-25T05:26:58.936Z,55.70
2023-04-25T05:29:25.653Z,55.60
2023-04-25T05:31:52.325Z,55.60
2023-04-25T05:34:18.982Z,55.70
2023-04-25T05:36:49.203Z,55.70
2023-04-25T05:39:18.806Z,55.80
2023-04-25T05:41:45.491Z,55.90
2023-04-25T05:44:12.157Z,56.00
2023-04-25T05:46:38.921Z,55.90
2023-04-25T05:49:05.719Z,55.90
2023-04-25T05:51:32.550Z,55.90
2023-04-25T05:53:59.249Z,56.10
2023-04-25T05:56:25.995Z,56.20
2023-04-25T05:58:52.622Z,56.10
2023-04-25T06:01:19.262Z,56.00
2023-04-25T06:03:46.040Z,56.10
2023-04-25T06:06:13.261Z,56.10
2023-04-25T06:08:40.962Z,56.10
2023-04-25T06:11:07.625Z,56.30
2023-04-25T06:13:34.296Z,56.30
2023-04-25T06:16:00.993Z,56.40
2023-04-25T06:18:30.672Z,56.20
2023-04-25T06:20:57.261Z,56.20
2023-04-25T06:23:23.965Z,56.20
2023-04-25T06:25:50.561Z,56.20
2023-04-25T06:28:17.161Z,56.20
2023-04-25T06:30:43.844Z,56.20
2023-04-25T06:33:11.391Z,56.10
2023-04-25T06:35:38.260Z,56.00
2023-04-25T06:38:04.987Z,56.10
2023-04-25T06:40:31.589Z,56.10
2023-04-25T06:42:58.229Z,56.10
2023-04-25T06:45:24.808Z,56.10
2023-04-25T06:47:51.495Z,56.20
2023-04-25T06:50:18.179Z,56.10
2023-04-25T06:52:44.746Z,56.10
2023-04-25T06:55:11.384Z,56.10
2023-04-25T06:57:38.046Z,56.30
2023-04-25T07:00:12.100Z,56.10
2023-04-25T07:02:38.983Z,56.10
2023-04-25T07:05:06.050Z,56.30
2023-04-25T07:07:32.638Z,56.20
2023-04-25T07:09:59.298Z,56.40
2023-04-25T07:12:25.944Z,56.30
2023-04-25T07:14:52.570Z,56.30
2023-04-25T07:17:19.312Z,56.30
2023-04-25T07:19:46.058Z,56.30
2023-04-25T07:22:12.862Z,56.30
2023-04-25T07:24:40.531Z,56.20
2023-04-25T07:27:07.281Z,56.10
2023-04-25T07:29:36.706Z,56.20
2023-04-25T07:32:03.517Z,56.30
2023-04-25T07:34:31.268Z,56.20
2023-04-25T07:36:58.024Z,56.30
2023-04-25T07:39:24.730Z,56.30
2023-04-25T07:41:53.758Z,56.30
2023-04-25T07:44:21.740Z,56.30
2023-04-25T07:46:48.340Z,56.30
2023-04-25T07:49:15.013Z,56.20
2023-04-25T07:51:42.102Z,56.20
2023-04-25T07:54:09.266Z,56.10
2023-04-25T07:56:49.240Z,56.10
2023-04-25T07:59:18.511Z,56.20
2023-04-25T08:01:45.142Z,56.20
2023-04-25T08:04:12.403Z,56.90
2023-04-25T08:06:39.212Z,56.30
2023-04-25T08:09:06.118Z,56.30
2023-04-25T08:11:32.771Z,56.30
2023-04-25T08:13:59.364Z,56.30
2023-04-25T08:16:26.270Z,56.10
2023-04-25T08:18:53.214Z,56.10
2023-04-25T08:21:20.322Z,56.20
2023-04-25T08:23:46.987Z,56.30
2023-04-25T08:26:13.786Z,56.40
2023-04-25T08:28:40.370Z,56.40
2023-04-25T08:31:07.000Z,56.30
2023-04-25T08:33:33.735Z,56.30
2023-04-25T08:36:00.417Z,56.30
2023-04-25T08:38:27.105Z,56.30
2023-04-25T08:40:56.282Z,56.30
2023-04-25T08:43:25.959Z,56.30
2023-04-25T08:45:54.500Z,56.30
2023-04-25T08:48:23.155Z,56.40
2023-04-25T08:50:54.876Z,56.30
2023-04-25T08:53:30.843Z,56.30
2023-04-25T08:55:59.291Z,56.30
2023-04-25T08:58:25.914Z,56.40
2023-04-25T09:00:53.778Z,56.40
2023-04-25T09:03:21.036Z,56.20
2023-04-25T09:05:47.916Z,56.30
2023-04-25T09:08:14.642Z,56.20
2023-04-25T09:10:41.442Z,56.10
2023-04-25T09:13:24.542Z,56.10
2023-04-25T09:15:56.037Z,56.10
2023-04-25T09:18:31.263Z,56.10
2023-04-25T09:21:14.900Z,56.10
2023-04-25T09:23:45.499Z,56.00
2023-04-25T09:26:15.589Z,56.10
2023-04-25T09:28:43.912Z,56.10
2023-04-25T09:31:13.447Z,56.10
2023-04-25T09:33:42.047Z,56.10
2023-04-25T09:36:14.551Z,56.20
2023-04-25T09:38:46.444Z,56.00
2023-04-25T09:41:14.087Z,55.90
2023-04-25T09:43:45.930Z,56.00
2023-04-25T09:46:12.833Z,56.00
2023-04-25T09:48:39.611Z,56.10
2023-04-25T09:51:06.926Z,56.20
2023-04-25T09:53:38.583Z,56.10
2023-04-25T09:56:09.911Z,56.00
2023-04-25T09:58:38.151Z,56.00
2023-04-25T10:01:07.502Z,56.00
2023-04-25T10:03:41.031Z,56.10
2023-04-25T10:06:18.812Z,56.00
2023-04-25T10:08:46.614Z,56.00
2023-04-25T10:11:16.687Z,55.90
2023-04-25T10:13:44.208Z,55.90
2023-04-25T10:16:11.237Z,56.00
2023-04-25T10:18:38.421Z,56.10
2023-04-25T10:21:07.229Z,56.10
2023-04-25T10:23:35.586Z,56.10
2023-04-25T10:26:02.914Z,56.00
2023-04-25T10:28:48.418Z,56.10
2023-04-25T10:31:17.405Z,56.20
2023-04-25T10:33:44.370Z,56.10
2023-04-25T10:36:19.347Z,56.10
2023-04-25T10:38:47.961Z,56.20
2023-04-25T10:41:15.913Z,56.10
2023-04-25T10:43:48.547Z,56.10
2023-04-25T10:46:20.666Z,56.60
2023-04-25T10:48:52.319Z,56.10
2023-04-25T10:51:47.288Z,56.00
2023-04-25T10:54:21.057Z,56.00
2023-04-25T10:56:50.479Z,56.00
2023-04-25T10:59:21.327Z,56.10
2023-04-25T11:01:52.219Z,56.10
2023-04-25T11:04:24.217Z,56.20
2023-04-25T11:07:14.529Z,56.20
2023-04-25T11:09:41.774Z,56.20
2023-04-25T11:12:09.960Z,56.20
2023-04-25T11:14:37.293Z,56.20
2023-04-25T11:17:04.304Z,56.10
2023-04-25T11:19:31.473Z,56.20
2023-04-25T11:22:02.498Z,56.30
2023-04-25T11:24:33.170Z,56.10
2023-04-25T11:27:08.806Z,56.10
2023-04-25T11:29:36.261Z,56.30
2023-04-25T11:32:03.528Z,56.50
2023-04-25T11:34:31.924Z,56.40
2023-04-25T11:36:58.703Z,56.40
2023-04-25T11:39:26.717Z,56.50
2023-04-25T11:41:54.317Z,56.50
2023-04-25T11:44:21.724Z,56.50
2023-04-25T11:46:48.527Z,56.70
2023-04-25T11:49:16.278Z,56.50
2023-04-25T11:51:44.364Z,56.50
2023-04-25T11:54:12.605Z,54.70
2023-04-25T11:56:43.423Z,55.10
2023-04-25T11:59:10.584Z,55.40
2023-04-25T12:01:39.603Z,55.40
2023-04-25T12:04:18.557Z,55.50
2023-04-25T12:06:49.655Z,55.60
2023-04-25T12:09:19.405Z,55.60
2023-04-25T12:11:53.985Z,55.70
2023-04-25T12:14:27.806Z,55.70
2023-04-25T12:16:58.197Z,55.90
2023-04-25T12:19:25.476Z,55.90
2023-04-25T12:24:27.081Z,55.90
2023-04-25T12:27:02.741Z,55.90
2023-04-25T12:29:41.965Z,55.90
2023-04-25T12:32:16.047Z,56.00
2023-04-25T12:34:42.991Z,56.10
2023-04-25T12:37:09.868Z,56.20
2023-04-25T12:39:36.536Z,56.20
2023-04-25T12:42:04.520Z,56.20
2023-04-25T12:44:31.804Z,56.10
2023-04-25T12:46:58.717Z,56.10
2023-04-25T12:49:26.349Z,56.20
2023-04-25T12:51:52.951Z,56.30
2023-04-25T12:54:19.639Z,56.40
2023-04-25T12:56:47.141Z,56.20
2023-04-25T12:59:13.874Z,56.30
2023-04-25T13:01:40.650Z,56.20
2023-04-25T13:04:07.598Z,56.30
2023-04-25T13:06:34.335Z,56.20
2023-04-25T13:09:01.304Z,56.20
2023-04-25T13:11:27.981Z,56.20
2023-04-25T13:13:54.843Z,56.20
2023-04-25T13:16:22.365Z,56.20
2023-04-25T13:18:49.490Z,56.10
2023-04-25T13:21:16.369Z,56.20
2023-04-25T13:23:47.513Z,56.20
2023-04-25T13:26:14.214Z,56.50
2023-04-25T13:28:44.280Z,56.00
2023-04-25T13:31:11.785Z,56.00
2023-04-25T13:33:38.430Z,56.10
2023-04-25T13:36:05.232Z,56.20
2023-04-25T13:38:31.928Z,56.30
2023-04-25T13:40:58.663Z,56.30
2023-04-25T13:43:25.283Z,56.30
2023-04-25T13:45:52.493Z,56.20
2023-04-25T13:48:20.792Z,56.20
2023-04-25T13:50:47.574Z,56.20
2023-04-25T13:53:14.377Z,56.40
2023-04-25T13:55:41.081Z,56.40
2023-04-25T13:58:11.053Z,56.20
2023-04-25T14:00:44.075Z,56.20
2023-04-25T14:03:11.029Z,56.20
2023-04-25T14:05:39.085Z,56.20
2023-04-25T14:08:10.177Z,56.10
2023-04-25T14:10:37.376Z,55.60
2023-04-25T14:13:06.388Z,56.20
2023-04-25T14:15:34.052Z,55.90
2023-04-25T14:18:01.647Z,56.00
2023-04-25T14:20:31.617Z,55.80
2023-04-25T14:22:59.087Z,55.60
2023-04-25T14:25:26.572Z,55.50
2023-04-25T14:27:53.299Z,55.60
2023-04-25T14:30:21.176Z,55.60
2023-04-25T14:32:48.834Z,55.80
2023-04-25T14:35:15.813Z,55.70
2023-04-25T14:37:42.427Z,55.50
2023-04-25T14:40:11.505Z,55.80
2023-04-25T14:42:38.652Z,55.70
2023-04-25T14:45:07.542Z,55.70
2023-04-25T14:47:34.440Z,55.70
2023-04-25T14:50:02.613Z,55.50
2023-04-25T14:52:29.775Z,55.50
2023-04-25T14:54:56.458Z,55.50
2023-04-25T14:57:23.118Z,55.50
2023-04-25T14:59:49.725Z,55.50
2023-04-25T15:02:16.742Z,55.50
2023-04-25T15:04:43.599Z,55.60
2023-04-25T15:07:10.345Z,55.60
2023-04-25T15:09:37.000Z,55.50
2023-04-25T15:12:03.864Z,55.30
2023-04-25T15:14:30.533Z,55.20
2023-04-25T15:16:57.386Z,55.00
2023-04-25T15:19:24.290Z,55.10
2023-04-25T15:21:51.018Z,55.10
2023-04-25T15:24:17.657Z,55.00
2023-04-25T15:26:44.666Z,55.00
2023-04-25T15:29:11.520Z,54.50
2023-04-25T15:31:38.649Z,55.00
2023-04-25T15:34:05.299Z,55.00
2023-04-25T15:36:32.317Z,55.00
2023-04-25T15:38:58.969Z,55.00
2023-04-25T15:41:26.319Z,55.00
2023-04-25T15:43:53.649Z,55.00
2023-04-25T15:46:21.911Z,54.90
2023-04-25T15:48:49.671Z,55.00
2023-04-25T15:51:17.120Z,54.90
2023-04-25T15:53:43.816Z,54.90
2023-04-25T15:56:11.037Z,54.80
2023-04-25T15:58:37.972Z,55.00
2023-04-25T16:01:04.955Z,55.10
2023-04-25T16:03:34.576Z,55.00
2023-04-25T16:06:03.055Z,54.80
2023-04-25T16:08:29.765Z,54.70
2023-04-25T16:10:57.295Z,54.70
2023-04-25T16:13:23.980Z,54.60
2023-04-25T16:15:50.802Z,54.60
2023-04-25T16:18:17.848Z,54.90
2023-04-25T16:20:45.029Z,54.70
2023-04-25T16:23:11.768Z,54.70
2023-04-25T16:25:38.494Z,54.70
2023-04-25T16:28:05.415Z,54.80
2023-04-25T16:30:32.190Z,54.80
2023-04-25T16:32:58.934Z,54.80
2023-04-25T16:35:25.718Z,54.80
2023-04-25T16:37:52.395Z,54.70
2023-04-25T16:40:19.162Z,54.90
2023-04-25T16:42:46.052Z,54.70
2023-04-25T16:45:13.802Z,54.90
2023-04-25T16:47:40.472Z,54.90
2023-04-25T16:50:07.682Z,54.80
2023-04-25T16:52:34.481Z,54.80
2023-04-25T16:55:01.358Z,54.80
2023-04-25T16:57:28.005Z,54.40
2023-04-25T16:59:54.865Z,54.90
2023-04-25T17:02:21.719Z,55.10
2023-04-25T17:04:48.540Z,54.90
2023-04-25T17:07:15.896Z,55.00
2023-04-25T17:09:42.638Z,55.10
2023-04-25T17:12:09.434Z,55.10
2023-04-25T17:14:37.115Z,55.10
2023-04-25T17:17:03.868Z,55.90
2023-04-25T17:19:31.582Z,55.20
2023-04-25T17:21:58.273Z,54.90
2023-04-25T17:24:24.961Z,55.00
2023-04-25T17:26:51.646Z,54.90
2023-04-25T17:29:19.095Z,55.00
2023-04-25T17:31:46.260Z,54.90
2023-04-25T17:34:17.946Z,54.90
2023-04-25T17:36:48.345Z,54.90
2023-04-25T17:39:17.096Z,55.00
2023-04-25T17:41:44.638Z,54.90
2023-04-25T17:44:11.401Z,55.10
2023-04-25T17:46:38.128Z,55.00
2023-04-25T17:49:04.949Z,54.90
2023-04-25T17:51:31.737Z,55.00
2023-04-25T17:53:58.426Z,54.90
2023-04-25T17:56:27.050Z,55.00
2023-04-25T17:58:54.935Z,55.00
2023-04-25T18:01:22.114Z,55.00
2023-04-25T18:03:49.833Z,55.00
2023-04-25T18:06:18.210Z,55.10
2023-04-25T18:08:45.346Z,55.00
2023-04-25T18:11:12.304Z,55.00
2023-04-25T18:13:40.666Z,55.00
2023-04-25T18:16:07.638Z,54.90
2023-04-25T18:18:35.881Z,54.80
2023-04-25T18:21:04.982Z,54.80
2023-04-25T18:23:35.362Z,54.80
2023-04-25T18:26:02.784Z,54.90
2023-04-25T18:28:29.578Z,55.10
2023-04-25T18:30:56.700Z,55.30
2023-04-25T18:33:23.434Z,55.30
2023-04-25T18:35:58.699Z,55.70
2023-04-25T18:41:04.382Z,55.80
2023-04-25T18:43:44.270Z,55.70
2023-04-25T18:46:10.954Z,55.80
2023-04-25T18:48:37.906Z,55.70
2023-04-25T18:51:05.409Z,55.90
2023-04-25T18:53:32.251Z,55.90
2023-04-25T18:55:58.831Z,56.00
2023-04-25T18:58:25.881Z,55.90
2023-04-25T19:00:52.733Z,55.70
2023-04-25T19:03:19.662Z,55.60
2023-04-25T19:05:46.670Z,55.40
2023-04-25T19:08:13.321Z,55.70
2023-04-25T19:10:39.945Z,55.60
2023-04-25T19:13:07.449Z,55.40
2023-04-25T19:15:34.134Z,55.40
2023-04-25T19:18:04.350Z,55.30
2023-04-25T19:20:32.459Z,55.40
2023-04-25T19:22:59.062Z,55.40
2023-04-25T19:25:26.274Z,55.40
2023-04-25T19:27:53.164Z,55.30
2023-04-25T19:30:20.303Z,55.30
2023-04-25T19:32:46.930Z,55.30
2023-04-25T19:35:14.162Z,55.30
2023-04-25T19:37:46.171Z,55.60
2023-04-25T19:40:14.844Z,55.50
2023-04-25T19:42:41.606Z,55.40
2023-04-25T19:45:08.971Z,55.50
2023-04-25T19:47:38.423Z,55.50
2023-04-25T19:50:09.833Z,55.50
2023-04-25T19:52:37.403Z,55.40
2023-04-25T19:55:04.864Z,56.10
2023-04-25T19:57:37.568Z,55.30
2023-04-25T20:00:10.682Z,55.40
2023-04-25T20:02:37.737Z,55.20
2023-04-25T20:05:08.771Z,55.30
2023-04-25T20:07:37.736Z,55.40
2023-04-25T20:10:10.486Z,55.30
2023-04-25T20:12:37.745Z,55.40
2023-04-25T20:15:05.111Z,55.40
2023-04-25T20:17:31.751Z,55.40
2023-04-25T20:19:58.354Z,55.30
2023-04-25T20:22:25.522Z,55.30
2023-04-25T20:24:52.668Z,55.30
2023-04-25T20:27:19.248Z,55.40
2023-04-25T20:29:46.073Z,55.30
2023-04-25T20:32:12.966Z,55.40
2023-04-25T20:34:39.720Z,55.40
2023-04-25T20:37:08.313Z,55.30
2023-04-25T20:39:35.766Z,55.40
2023-04-25T20:42:02.917Z,55.40
2023-04-25T20:44:29.700Z,55.30
2023-04-25T20:46:56.430Z,55.30
2023-04-25T20:49:23.051Z,55.30
2023-04-25T20:51:49.740Z,55.30
2023-04-25T20:54:16.554Z,55.20
2023-04-25T20:56:43.280Z,55.30
2023-04-25T20:59:09.878Z,55.20
2023-04-25T21:01:36.610Z,55.20
2023-04-25T21:04:03.660Z,55.20
2023-04-25T21:06:31.216Z,55.20
2023-04-25T21:08:57.828Z,55.20
2023-04-25T21:11:24.467Z,55.20
2023-04-25T21:13:51.652Z,55.20
2023-04-25T21:16:18.554Z,55.20
2023-04-25T21:18:45.256Z,55.10
2023-04-25T21:21:11.964Z,55.20
2023-04-25T21:23:38.612Z,55.20
2023-04-25T21:26:05.974Z,55.20
2023-04-25T21:28:32.569Z,55.20
2023-04-25T21:30:59.263Z,55.20
2023-04-25T21:33:25.985Z,55.20
2023-04-25T21:35:52.569Z,55.20
2023-04-25T21:38:19.236Z,55.20
2023-04-25T21:40:45.864Z,55.20
2023-04-25T21:43:12.929Z,55.10
2023-04-25T21:45:53.790Z,55.20
2023-04-25T21:48:26.511Z,55.20
2023-04-25T21:50:53.188Z,55.30
2023-04-25T21:53:19.782Z,55.40
2023-04-25T21:55:46.372Z,55.30
2023-04-25T21:58:13.118Z,55.20
2023-04-25T22:00:39.727Z,55.30
2023-04-25T22:03:06.416Z,55.20
2023-04-25T22:05:34.098Z,55.20
2023-04-25T22:08:00.837Z,55.20
2023-04-25T22:10:27.759Z,55.20
2023-04-25T22:12:55.700Z,55.20
2023-04-25T22:15:23.728Z,55.20
2023-04-25T22:17:52.318Z,55.00
2023-04-25T22:20:20.030Z,55.00
2023-04-25T22:22:46.931Z,55.00
2023-04-25T22:25:13.593Z,55.70
2023-04-25T22:27:41.852Z,55.00
2023-04-25T22:30:10.053Z,55.10
2023-04-25T22:32:37.067Z,55.10
2023-04-25T22:35:04.936Z,55.10
2023-04-25T22:37:31.738Z,55.10
2023-04-25T22:39:58.334Z,55.10
2023-04-25T22:42:25.051Z,55.10
2023-04-25T22:44:52.869Z,55.70
2023-04-25T22:47:21.512Z,55.00
2023-04-25T22:49:48.117Z,55.10
2023-04-25T22:52:14.717Z,55.00
2023-04-25T22:54:41.304Z,55.10
2023-04-25T22:57:08.297Z,55.10
2023-04-25T22:59:36.608Z,55.10
2023-04-25T23:02:03.744Z,55.00
2023-04-25T23:04:31.223Z,55.10
2023-04-25T23:06:58.530Z,55.00
2023-04-25T23:09:25.126Z,55.10
2023-04-25T23:11:53.285Z,55.10
2023-04-25T23:14:21.218Z,55.10
2023-04-25T23:16:47.849Z,55.00
2023-04-25T23:19:14.468Z,55.10
2023-04-25T23:21:41.073Z,55.00
2023-04-25T23:24:07.708Z,55.00
2023-04-25T23:26:34.503Z,55.00
2023-04-25T23:29:01.562Z,55.00
2023-04-25T23:31:29.410Z,55.00
2023-04-25T23:33:56.348Z,55.00
2023-04-25T23:36:23.747Z,55.00
2023-04-25T23:38:50.872Z,54.50
2023-04-25T23:41:18.043Z,55.00
2023-04-25T23:43:44.659Z,55.00
2023-04-25T23:46:12.412Z,55.00
2023-04-25T23:48:39.069Z,55.00
2023-04-25T23:51:05.696Z,55.00
2023-04-25T23:53:32.285Z,54.90
2023-04-25T23:55:59.580Z,55.00
2023-04-25T23:58:26.174Z,55.00
